Terminal Aerodrome Forecast
Issued by NWS Charleston, WV

Current Version | Previous Version | Graphics & Text | Print | Product List | Glossary On
Versions: 1 2 3 4 5 6 7 8 9 10 11 12 13 14 15 16 17 18 19 20 21 22
188
FTUS41 KRLX 091135
TAFEKN
TAF
KEKN 091135Z 0912/1012 28007KT 4SM -SHSN OVC025
     FM091500 28008KT 6SM -SHSN OVC025
     FM092200 28009KT P6SM OVC025=

USA.gov is the U.S. government's official web portal to all federal, state and local government web resources and services.